createdAt,value
2019-05-13T00:00:44.651Z,99.90
2019-05-13T00:03:13.857Z,99.90
2019-05-13T00:05:44.583Z,99.90
2019-05-13T00:08:14.236Z,99.90
2019-05-13T00:10:44.971Z,99.90
2019-05-13T00:13:14.674Z,99.90
2019-05-13T00:15:45.194Z,99.90
2019-05-13T00:18:14.378Z,99.90
2019-05-13T00:20:44.273Z,99.90
2019-05-13T00:23:14.346Z,99.90
2019-05-13T00:25:45.818Z,99.90
2019-05-13T00:28:14.689Z,99.90
2019-05-13T00:30:47.379Z,99.90
2019-05-13T00:33:18.699Z,99.90
2019-05-13T00:35:50.589Z,99.90
2019-05-13T00:38:19.194Z,99.90
2019-05-13T00:40:47.865Z,99.90
2019-05-13T00:43:18.300Z,99.90
2019-05-13T00:45:46.949Z,99.90
2019-05-13T00:48:16.828Z,99.90
2019-05-13T00:50:45.369Z,99.90
2019-05-13T00:53:14.100Z,99.90
2019-05-13T00:55:44.566Z,99.90
2019-05-13T00:58:14.806Z,99.90
2019-05-13T01:00:44.577Z,99.90
2019-05-13T01:03:14.404Z,99.90
2019-05-13T01:05:44.567Z,99.90
2019-05-13T01:08:14.595Z,99.90
2019-05-13T01:10:45.122Z,99.90
2019-05-13T01:13:13.808Z,99.90
2019-05-13T01:15:44.318Z,99.90
2019-05-13T01:18:14.221Z,99.90
2019-05-13T01:20:43.921Z,99.90
2019-05-13T01:23:14.278Z,99.90
2019-05-13T01:25:44.484Z,99.90
2019-05-13T01:28:13.623Z,99.90
2019-05-13T01:30:43.799Z,99.90
2019-05-13T01:33:14.438Z,99.90
2019-05-13T01:35:44.549Z,99.90
2019-05-13T01:38:13.667Z,99.90
2019-05-13T01:40:43.968Z,99.90
2019-05-13T01:43:14.388Z,99.90
2019-05-13T01:45:44.165Z,99.90
2019-05-13T01:48:14.118Z,99.90
2019-05-13T01:50:44.418Z,99.90
2019-05-13T01:53:14.420Z,99.90
2019-05-13T01:55:44.392Z,99.90
2019-05-13T01:58:14.639Z,99.90
2019-05-13T02:00:44.378Z,99.90
2019-05-13T02:03:14.713Z,99.90
2019-05-13T02:05:48.947Z,99.90
2019-05-13T02:08:17.615Z,99.90
2019-05-13T02:10:50.853Z,99.90
2019-05-13T02:13:19.651Z,99.90
2019-05-13T02:15:48.372Z,99.90
2019-05-13T02:18:17.006Z,99.90
2019-05-13T02:20:47.238Z,99.90
2019-05-13T02:23:15.908Z,99.90
2019-05-13T02:25:44.616Z,99.90
2019-05-13T02:28:14.007Z,99.90
2019-05-13T02:30:45.533Z,99.90
2019-05-13T02:33:13.454Z,99.90
2019-05-13T02:35:43.423Z,99.90
2019-05-13T02:38:22.704Z,99.90
2019-05-13T02:40:44.344Z,99.90
2019-05-13T02:43:13.775Z,99.90
2019-05-13T02:45:43.398Z,99.90
2019-05-13T02:48:12.782Z,99.90
2019-05-13T02:50:44.208Z,99.90
2019-05-13T02:53:13.573Z,99.90
2019-05-13T02:55:43.614Z,99.90
2019-05-13T02:58:12.662Z,99.90
2019-05-13T03:00:44.134Z,99.90
2019-05-13T03:03:13.083Z,99.90
2019-05-13T03:05:42.821Z,99.90
2019-05-13T03:08:12.634Z,99.90
2019-05-13T03:10:43.573Z,99.90
2019-05-13T03:13:12.829Z,99.90
2019-05-13T03:15:43.300Z,99.90
2019-05-13T03:18:13.302Z,99.90
2019-05-13T03:20:43.147Z,99.90
2019-05-13T03:23:13.447Z,99.90
2019-05-13T03:25:43.005Z,99.90
2019-05-13T03:28:13.416Z,99.90
2019-05-13T03:30:45.728Z,99.90
2019-05-13T03:33:18.507Z,99.90
2019-05-13T03:35:45.333Z,99.90
2019-05-13T03:38:13.608Z,99.90
2019-05-13T03:40:42.756Z,99.90
2019-05-13T03:43:13.201Z,99.90
2019-05-13T03:45:43.316Z,99.90
2019-05-13T03:48:14.682Z,99.90
2019-05-13T03:50:44.697Z,99.90
2019-05-13T03:53:13.424Z,99.90
2019-05-13T03:55:45.570Z,99.90
2019-05-13T03:58:14.464Z,99.90
2019-05-13T04:00:46.017Z,99.90
2019-05-13T04:03:14.453Z,99.90
2019-05-13T04:05:43.855Z,99.90
2019-05-13T04:08:13.441Z,99.90
2019-05-13T04:10:42.439Z,99.90
2019-05-13T04:13:12.535Z,99.90
2019-05-13T04:15:43.450Z,99.90
2019-05-13T04:18:12.756Z,99.90
2019-05-13T04:20:42.424Z,99.90
2019-05-13T04:23:12.912Z,99.90
2019-05-13T04:25:44.672Z,99.90
2019-05-13T04:28:13.374Z,99.90
2019-05-13T04:30:43.617Z,99.90
2019-05-13T04:33:13.918Z,99.90
2019-05-13T04:35:44.974Z,99.90
2019-05-13T04:38:14.982Z,99.90
2019-05-13T04:40:43.688Z,99.90
2019-05-13T04:43:13.216Z,99.90
2019-05-13T04:45:42.991Z,99.90
2019-05-13T04:48:12.781Z,99.90
2019-05-13T04:50:43.179Z,99.90
2019-05-13T04:53:13.698Z,99.90
2019-05-13T04:55:45.690Z,99.90
2019-05-13T04:58:15.837Z,99.90
2019-05-13T05:01:08.689Z,99.90
2019-05-13T05:03:44.560Z,99.90
2019-05-13T05:06:22.748Z,99.90
2019-05-13T05:09:04.738Z,99.90
2019-05-13T05:11:52.937Z,99.90
2019-05-13T05:14:27.753Z,99.90
2019-05-13T05:17:18.854Z,99.90
2019-05-13T05:20:05.535Z,99.90
2019-05-13T05:22:52.321Z,99.90
2019-05-13T05:25:29.240Z,99.90
2019-05-13T05:28:11.186Z,99.90
2019-05-13T05:31:11.601Z,99.90
2019-05-13T05:33:52.138Z,99.90
2019-05-13T05:36:44.977Z,99.90
2019-05-13T05:39:25.523Z,99.90
2019-05-13T05:42:01.945Z,99.90
2019-05-13T05:44:32.880Z,99.90
2019-05-13T05:47:06.479Z,99.90
2019-05-13T05:49:37.721Z,99.90
2019-05-13T05:52:07.582Z,99.90
2019-05-13T05:54:42.031Z,99.90
2019-05-13T05:57:12.195Z,99.90
2019-05-13T05:59:42.632Z,99.90
2019-05-13T06:02:12.192Z,99.90
2019-05-13T06:04:51.433Z,99.90
2019-05-13T06:07:21.815Z,99.90
2019-05-13T06:09:51.610Z,99.90
2019-05-13T06:12:21.818Z,99.90
2019-05-13T06:14:52.493Z,99.90
2019-05-13T06:17:21.903Z,99.90
2019-05-13T06:19:51.292Z,99.90
2019-05-13T06:22:21.679Z,99.90
2019-05-13T06:24:52.140Z,99.90
2019-05-13T06:27:21.604Z,99.90
2019-05-13T06:29:52.754Z,99.90
2019-05-13T06:32:26.266Z,99.90
2019-05-13T06:34:52.525Z,99.90
2019-05-13T06:37:22.274Z,99.90
2019-05-13T06:39:51.333Z,99.90
2019-05-13T06:42:22.201Z,99.90
2019-05-13T06:44:51.504Z,99.90
2019-05-13T06:47:22.005Z,99.90
2019-05-13T06:49:51.633Z,99.90
2019-05-13T06:52:21.254Z,99.90
2019-05-13T06:54:54.841Z,99.90
2019-05-13T06:57:23.783Z,99.90
2019-05-13T06:59:52.603Z,99.90
2019-05-13T07:02:21.707Z,99.90
2019-05-13T07:04:51.656Z,99.90
2019-05-13T07:07:21.966Z,99.90
2019-05-13T07:09:52.687Z,99.90
2019-05-13T07:12:22.089Z,99.90
2019-05-13T07:14:51.821Z,99.90
2019-05-13T07:17:22.322Z,99.90
2019-05-13T07:19:51.790Z,99.90
2019-05-13T07:22:23.068Z,99.90
2019-05-13T07:24:52.415Z,99.90
2019-05-13T07:27:22.944Z,99.90
2019-05-13T07:29:55.357Z,99.90
2019-05-13T07:32:22.262Z,99.90
2019-05-13T07:34:53.338Z,99.90
2019-05-13T07:37:22.162Z,99.90
2019-05-13T07:39:53.035Z,99.90
2019-05-13T07:42:22.318Z,99.90
2019-05-13T07:44:52.680Z,99.90
2019-05-13T07:47:22.307Z,99.90
2019-05-13T07:49:51.864Z,99.90
2019-05-13T07:52:22.709Z,99.90
2019-05-13T07:54:55.120Z,99.90
2019-05-13T07:57:25.394Z,99.90
2019-05-13T07:59:56.764Z,99.90
2019-05-13T08:02:25.842Z,99.90
2019-05-13T08:04:54.532Z,99.90
2019-05-13T08:07:24.319Z,99.90
2019-05-13T08:09:56.813Z,99.90
2019-05-13T08:12:23.384Z,99.90
2019-05-13T08:14:52.352Z,99.90
2019-05-13T08:17:22.527Z,99.90
2019-05-13T08:19:53.447Z,99.90
2019-05-13T08:22:25.042Z,99.90
2019-05-13T08:24:57.400Z,99.90
2019-05-13T08:27:30.700Z,99.90
2019-05-13T08:30:01.479Z,99.90
2019-05-13T08:32:31.408Z,99.90
2019-05-13T08:35:08.701Z,99.90
2019-05-13T08:37:33.392Z,99.90
2019-05-13T08:40:02.328Z,99.90
2019-05-13T08:42:32.288Z,98.90
2019-05-13T08:45:02.047Z,96.90
2019-05-13T08:47:31.502Z,95.30
2019-05-13T08:50:03.839Z,93.70
2019-05-13T08:52:36.259Z,93.90
2019-05-13T08:55:06.833Z,95.60
2019-05-13T08:57:41.863Z,96.60
2019-05-13T09:00:13.449Z,95.20
2019-05-13T09:02:42.011Z,94.10
2019-05-13T09:05:12.146Z,92.90
2019-05-13T09:07:44.090Z,91.20
2019-05-13T09:10:12.903Z,90.60
2019-05-13T09:12:44.557Z,90.10
2019-05-13T09:15:13.363Z,89.40
2019-05-13T09:17:42.657Z,87.00
2019-05-13T09:20:11.824Z,85.70
2019-05-13T09:22:41.258Z,84.80
2019-05-13T09:25:12.545Z,79.10
2019-05-13T09:27:45.019Z,78.50
2019-05-13T09:30:13.893Z,76.80
2019-05-13T09:32:42.780Z,77.10
2019-05-13T09:37:51.986Z,65.70
2019-05-13T09:40:22.435Z,67.90
2019-05-13T09:42:55.264Z,71.50
2019-05-13T09:45:24.429Z,68.70
2019-05-13T09:47:53.214Z,70.30
2019-05-13T09:50:29.417Z,70.30
2019-05-13T09:52:53.845Z,68.00
2019-05-13T09:55:28.982Z,69.50
2019-05-13T09:57:53.811Z,68.20
2019-05-13T10:00:23.842Z,68.50
2019-05-13T10:02:53.616Z,66.70
2019-05-13T10:05:23.887Z,70.00
2019-05-13T10:07:53.371Z,66.20
2019-05-13T10:10:23.608Z,62.80
2019-05-13T10:13:11.314Z,68.10
2019-05-13T10:15:27.422Z,64.50
2019-05-13T10:17:57.652Z,64.00
2019-05-13T10:20:58.334Z,64.50
2019-05-13T10:23:26.615Z,63.40
2019-05-13T10:25:58.288Z,64.10
2019-05-13T10:28:28.828Z,63.70
2019-05-13T10:31:00.653Z,64.40
2019-05-13T10:33:31.823Z,59.70
2019-05-13T10:36:04.572Z,63.10
2019-05-13T10:38:33.395Z,59.40
2019-05-13T10:41:03.927Z,62.50
2019-05-13T10:43:39.056Z,62.30
2019-05-13T10:46:15.738Z,61.40
2019-05-13T10:48:44.310Z,60.70
2019-05-13T10:51:13.313Z,66.00
2019-05-13T10:53:42.788Z,63.50
2019-05-13T10:56:15.251Z,65.60
2019-05-13T10:58:49.305Z,62.10
2019-05-13T11:01:17.973Z,61.30
2019-05-13T11:03:47.038Z,62.50
2019-05-13T11:06:15.786Z,60.50
2019-05-13T11:08:44.430Z,62.60
2019-05-13T11:11:15.828Z,62.80
2019-05-13T11:13:54.919Z,65.00
2019-05-13T11:16:16.636Z,66.60
2019-05-13T11:18:45.349Z,64.60
2019-05-13T11:21:14.136Z,67.60
2019-05-13T11:23:42.784Z,66.40
2019-05-13T11:26:13.134Z,66.00
2019-05-13T11:28:44.822Z,67.60
2019-05-13T11:31:16.083Z,66.00
2019-05-13T11:33:44.328Z,70.60
2019-05-13T11:36:19.143Z,68.50
2019-05-13T11:38:46.319Z,67.30
2019-05-13T11:41:22.587Z,67.60
2019-05-13T11:44:10.951Z,68.00
2019-05-13T11:46:22.596Z,67.30
2019-05-13T11:48:52.038Z,68.00
2019-05-13T11:51:24.232Z,66.00
2019-05-13T11:53:57.855Z,64.90
2019-05-13T11:56:33.733Z,63.20
2019-05-13T11:59:05.685Z,67.30
2019-05-13T12:01:42.675Z,67.10
2019-05-13T12:04:14.589Z,70.80
2019-05-13T12:06:53.223Z,67.00
2019-05-13T12:09:31.964Z,61.80
2019-05-13T12:12:03.188Z,62.90
2019-05-13T12:15:16.282Z,62.20
2019-05-13T12:17:18.276Z,63.20
2019-05-13T12:19:54.228Z,63.30
2019-05-13T12:22:24.710Z,59.50
2019-05-13T12:24:53.454Z,61.50
2019-05-13T12:27:22.374Z,64.50
2019-05-13T12:29:55.181Z,63.50
2019-05-13T12:32:24.074Z,61.10
2019-05-13T12:34:58.410Z,59.40
2019-05-13T12:37:27.163Z,63.00
2019-05-13T12:39:56.173Z,63.70
2019-05-13T12:42:26.393Z,63.70
2019-05-13T12:45:08.392Z,62.10
2019-05-13T12:47:28.239Z,59.00
2019-05-13T12:50:03.258Z,63.00
2019-05-13T12:52:32.610Z,61.60
2019-05-13T12:55:14.068Z,62.30
2019-05-13T12:57:32.478Z,60.50
2019-05-13T13:00:02.363Z,61.60
2019-05-13T13:02:35.005Z,64.90
2019-05-13T13:05:18.440Z,61.40
2019-05-13T13:07:42.340Z,60.80
2019-05-13T13:10:15.193Z,60.30
2019-05-13T13:12:45.238Z,61.80
2019-05-13T13:15:35.930Z,61.80
2019-05-13T13:17:46.240Z,59.50
2019-05-13T13:20:15.795Z,61.60
2019-05-13T13:22:44.417Z,59.90
2019-05-13T13:25:13.848Z,64.40
2019-05-13T13:28:09.830Z,63.60
2019-05-13T13:30:14.932Z,61.80
2019-05-13T13:32:54.149Z,61.10
2019-05-13T13:35:21.842Z,63.40
2019-05-13T13:37:53.100Z,64.50
2019-05-13T13:40:29.682Z,67.70
2019-05-13T13:42:57.290Z,66.40
2019-05-13T13:45:28.406Z,64.10
2019-05-13T13:48:03.255Z,61.60
2019-05-13T13:50:37.682Z,63.70
2019-05-13T13:53:06.394Z,61.90
2019-05-13T13:55:36.652Z,63.80
2019-05-13T13:58:07.571Z,66.20
2019-05-13T14:00:47.274Z,67.60
2019-05-13T14:03:06.810Z,66.50
2019-05-13T14:05:42.561Z,66.40
2019-05-13T14:08:12.384Z,67.10
2019-05-13T14:10:42.009Z,67.20
2019-05-13T14:13:12.550Z,68.50
2019-05-13T14:15:48.183Z,65.70
2019-05-13T14:18:14.200Z,69.00
2019-05-13T14:20:43.074Z,68.10
2019-05-13T14:23:12.767Z,70.80
2019-05-13T14:25:43.695Z,70.80
2019-05-13T14:28:17.367Z,69.60
2019-05-13T14:30:43.694Z,69.80
2019-05-13T14:33:12.484Z,69.70
2019-05-13T14:35:42.684Z,70.60
2019-05-13T14:38:13.343Z,68.30
2019-05-13T14:40:42.154Z,69.20
2019-05-13T14:43:12.082Z,68.50
2019-05-13T14:45:41.235Z,67.30
2019-05-13T14:48:12.424Z,68.70
2019-05-13T14:50:43.019Z,71.10
2019-05-13T14:53:13.263Z,71.10
2019-05-13T14:55:43.676Z,69.20
2019-05-13T14:58:15.636Z,69.70
2019-05-13T15:00:44.334Z,70.80
2019-05-13T15:03:13.265Z,67.50
2019-05-13T15:05:42.995Z,68.60
2019-05-13T15:08:11.860Z,65.60
2019-05-13T15:10:41.994Z,66.10
2019-05-13T15:13:14.769Z,66.50
2019-05-13T15:15:43.431Z,65.90
2019-05-13T15:18:17.375Z,66.40
2019-05-13T15:20:46.190Z,68.30
2019-05-13T15:23:18.066Z,69.40
2019-05-13T15:25:51.424Z,67.90
2019-05-13T15:28:22.243Z,68.40
2019-05-13T15:30:51.638Z,68.80
2019-05-13T15:33:27.505Z,68.30
2019-05-13T15:36:01.277Z,67.60
2019-05-13T15:38:31.814Z,69.70
2019-05-13T15:41:02.060Z,69.90
2019-05-13T15:43:31.919Z,69.60
2019-05-13T15:46:01.718Z,70.30
2019-05-13T15:48:31.495Z,71.60
2019-05-13T15:51:11.344Z,70.40
2019-05-13T15:53:43.828Z,70.80
2019-05-13T15:56:21.654Z,73.60
2019-05-13T15:59:01.737Z,71.20
2019-05-13T16:01:31.648Z,69.50
2019-05-13T16:04:07.195Z,71.60
2019-05-13T16:06:37.382Z,71.80
2019-05-13T16:09:14.465Z,73.60
2019-05-13T16:11:43.239Z,73.80
2019-05-13T16:14:12.618Z,73.70
2019-05-13T16:16:44.288Z,74.60
2019-05-13T16:19:19.872Z,72.10
2019-05-13T16:21:52.582Z,72.30
2019-05-13T16:24:21.827Z,73.20
2019-05-13T16:27:04.229Z,71.30
2019-05-13T16:29:31.422Z,73.30
2019-05-13T16:32:03.863Z,73.50
2019-05-13T16:34:32.859Z,73.40
2019-05-13T16:37:03.021Z,73.20
2019-05-13T16:39:32.105Z,71.90
2019-05-13T16:42:02.633Z,72.40
2019-05-13T16:44:33.454Z,72.30
2019-05-13T16:47:12.541Z,70.30
2019-05-13T16:49:42.756Z,72.40
2019-05-13T16:52:13.356Z,71.30
2019-05-13T16:54:42.672Z,71.30
2019-05-13T16:57:28.885Z,73.10
2019-05-13T17:00:06.269Z,73.60
2019-05-13T17:02:42.166Z,72.00
2019-05-13T17:05:17.312Z,72.40
2019-05-13T17:07:53.498Z,73.20
2019-05-13T17:10:26.418Z,73.30
2019-05-13T17:13:02.913Z,73.50
2019-05-13T17:15:37.734Z,74.10
2019-05-13T17:18:12.942Z,75.00
2019-05-13T17:20:45.942Z,72.60
2019-05-13T17:23:17.075Z,72.10
2019-05-13T17:25:46.798Z,73.60
2019-05-13T17:28:21.947Z,72.00
2019-05-13T17:30:57.906Z,73.70
2019-05-13T17:33:28.275Z,72.50
2019-05-13T17:36:07.324Z,73.60
2019-05-13T17:38:38.947Z,74.10
2019-05-13T17:41:16.882Z,75.60
2019-05-13T17:43:45.482Z,77.10
2019-05-13T17:46:28.563Z,75.80
2019-05-13T17:48:52.061Z,75.10
2019-05-13T17:51:27.301Z,76.00
2019-05-13T17:54:01.392Z,75.80
2019-05-13T17:56:28.175Z,75.00
2019-05-13T17:59:03.678Z,76.10
2019-05-13T18:01:35.965Z,78.60
2019-05-13T18:04:04.744Z,78.00
2019-05-13T18:06:36.186Z,78.50
2019-05-13T18:09:08.061Z,77.80
2019-05-13T18:11:36.860Z,78.80
2019-05-13T18:14:05.753Z,78.20
2019-05-13T18:16:36.822Z,79.10
2019-05-13T18:19:05.648Z,80.40
2019-05-13T18:21:37.508Z,80.10
2019-05-13T18:24:12.442Z,79.40
2019-05-13T18:26:55.612Z,80.90
2019-05-13T18:29:38.894Z,81.90
2019-05-13T18:32:07.638Z,82.30
2019-05-13T18:34:39.061Z,84.00
2019-05-13T18:37:07.913Z,85.80
2019-05-13T18:39:41.841Z,85.00
2019-05-13T18:42:11.453Z,87.00
2019-05-13T18:44:42.269Z,88.90
2019-05-13T18:47:12.225Z,90.00
2019-05-13T18:49:42.341Z,90.40
2019-05-13T18:52:14.774Z,91.60
2019-05-13T18:54:43.613Z,91.40
2019-05-13T18:57:12.461Z,91.10
2019-05-13T18:59:43.773Z,91.60
2019-05-13T19:02:15.273Z,91.70
2019-05-13T19:04:43.837Z,92.70
2019-05-13T19:07:14.722Z,93.00
2019-05-13T19:09:45.889Z,94.10
2019-05-13T19:12:21.988Z,93.60
2019-05-13T19:14:57.127Z,94.10
2019-05-13T19:17:25.946Z,94.70
2019-05-13T19:19:54.679Z,95.00
2019-05-13T19:22:23.386Z,95.00
2019-05-13T19:24:52.845Z,95.60
2019-05-13T19:27:21.647Z,95.60
2019-05-13T19:29:52.396Z,96.20
2019-05-13T19:32:25.420Z,95.60
2019-05-13T19:34:58.687Z,96.50
2019-05-13T19:37:27.408Z,97.00
2019-05-13T19:40:01.208Z,97.60
2019-05-13T19:42:32.324Z,98.00
2019-05-13T19:45:25.076Z,98.20
2019-05-13T19:47:56.456Z,98.90
2019-05-13T19:50:31.503Z,99.90
2019-05-13T19:53:01.620Z,99.90
2019-05-13T19:55:33.922Z,99.90
2019-05-13T19:58:07.661Z,99.90
2019-05-13T20:00:36.863Z,99.90
2019-05-13T20:03:11.713Z,99.90
2019-05-13T20:05:41.491Z,99.90
2019-05-13T20:08:10.818Z,99.90
2019-05-13T20:10:45.595Z,99.90
2019-05-13T20:13:14.673Z,99.90
2019-05-13T20:15:47.585Z,99.90
2019-05-13T20:18:19.489Z,99.90
2019-05-13T20:20:54.575Z,99.90
2019-05-13T20:23:25.230Z,99.90
2019-05-13T20:25:59.891Z,99.90
2019-05-13T20:28:31.687Z,99.90
2019-05-13T20:31:07.379Z,99.90
2019-05-13T20:33:43.740Z,99.90
2019-05-13T20:36:12.945Z,99.90
2019-05-13T20:38:51.012Z,99.90
2019-05-13T20:41:18.247Z,99.90
2019-05-13T20:43:47.753Z,99.90
2019-05-13T20:46:18.941Z,99.90
2019-05-13T20:48:48.144Z,99.90
2019-05-13T20:51:17.230Z,99.90
2019-05-13T20:53:46.144Z,99.90
2019-05-13T20:56:14.936Z,99.90
2019-05-13T20:58:47.861Z,99.90
2019-05-13T21:01:20.626Z,99.90
2019-05-13T21:03:51.578Z,99.90
2019-05-13T21:06:22.574Z,99.90
2019-05-13T21:08:52.261Z,99.90
2019-05-13T21:11:21.132Z,99.90
2019-05-13T21:13:51.692Z,99.90
2019-05-13T21:16:21.884Z,99.90
2019-05-13T21:18:50.398Z,99.90
2019-05-13T21:21:18.958Z,99.90
2019-05-13T21:23:49.227Z,99.90
2019-05-13T21:26:24.807Z,99.90
2019-05-13T21:28:56.560Z,99.90
2019-05-13T21:31:29.472Z,99.90
2019-05-13T21:33:58.172Z,99.90
2019-05-13T21:36:26.794Z,99.90
2019-05-13T21:38:55.563Z,99.90
2019-05-13T21:41:25.678Z,99.90
2019-05-13T21:43:54.448Z,99.90
2019-05-13T21:46:23.240Z,99.90
2019-05-13T21:49:04.078Z,99.90
2019-05-13T21:51:35.624Z,99.90
2019-05-13T21:54:12.342Z,99.90
2019-05-13T21:56:43.980Z,99.90
2019-05-13T21:59:13.276Z,99.90
2019-05-13T22:01:42.423Z,99.90
2019-05-13T22:04:12.380Z,99.90
2019-05-13T22:06:41.352Z,99.90
2019-05-13T22:09:13.676Z,99.90
2019-05-13T22:11:42.379Z,99.90
2019-05-13T22:14:15.321Z,99.90
2019-05-13T22:16:43.993Z,99.90
2019-05-13T22:19:12.694Z,99.90
2019-05-13T22:21:42.295Z,99.90
2019-05-13T22:24:11.701Z,99.90
2019-05-13T22:26:44.436Z,99.90
2019-05-13T22:29:14.595Z,99.90
2019-05-13T22:31:43.750Z,99.90
2019-05-13T22:34:12.455Z,99.90
2019-05-13T22:36:41.174Z,99.90
2019-05-13T22:39:11.550Z,99.90
2019-05-13T22:41:42.235Z,99.90
2019-05-13T22:44:16.103Z,99.90
2019-05-13T22:46:44.805Z,99.90
2019-05-13T22:49:15.584Z,99.90
2019-05-13T22:51:47.713Z,99.90
2019-05-13T22:54:16.693Z,99.90
2019-05-13T22:56:47.199Z,99.90
2019-05-13T22:59:17.124Z,99.90
2019-05-13T23:01:45.883Z,99.90
2019-05-13T23:04:14.665Z,99.90
2019-05-13T23:06:43.331Z,99.90
2019-05-13T23:09:12.615Z,99.90
2019-05-13T23:11:41.799Z,99.90
2019-05-13T23:14:13.444Z,99.90
2019-05-13T23:16:42.113Z,99.90
2019-05-13T23:19:11.201Z,99.90
2019-05-13T23:21:42.043Z,99.90
2019-05-13T23:24:11.347Z,99.90
2019-05-13T23:26:42.122Z,99.90
2019-05-13T23:29:10.513Z,99.90
2019-05-13T23:31:41.491Z,99.90
2019-05-13T23:34:14.486Z,99.90
2019-05-13T23:36:44.855Z,99.90
2019-05-13T23:39:13.487Z,99.90
2019-05-13T23:41:42.189Z,99.90
2019-05-13T23:44:24.105Z,99.90
2019-05-13T23:46:42.827Z,99.90
2019-05-13T23:49:11.943Z,99.90
2019-05-13T23:51:41.385Z,99.90
2019-05-13T23:54:12.281Z,99.90
2019-05-13T23:56:41.696Z,99.90
2019-05-13T23:59:11.903Z,99.90
